Time;durP1;ratioP1;P1;durP2;ratioP2;P2;SDS_P1;SDS_P2;PMS_P1;PMS_P2;Temp;Humidity;BMP_temperature;BMP_pressure;BME280_temperature;BME280_humidity;BME280_pressure;Samples;Min_cycle;Max_cycle;Signal;HPM_P1;HPM_P2
2024/02/10 00:00:26;;;;;;;9.95;6.50;;;-10.00;91.10;;;;;;5073433;28;20369;-82
2024/02/10 00:02:54;;;;;;;13.30;6.95;;;-10.00;91.10;;;;;;5081800;28;20095;-83
2024/02/10 00:05:22;;;;;;;12.82;6.18;;;-10.00;91.20;;;;;;5081414;28;20029;-83
2024/02/10 00:07:55;;;;;;;12.25;7.47;;;-10.10;91.10;;;;;;5074548;28;20024;-84
2024/02/10 00:10:25;;;;;;;12.65;6.45;;;-10.10;91.10;;;;;;5074052;28;20144;-82
2024/02/10 00:12:51;;;;;;;11.32;5.97;;;-10.10;91.20;;;;;;5063396;28;20096;-82
2024/02/10 00:15:20;;;;;;;9.43;4.72;;;-10.10;91.20;;;;;;5076068;28;20031;-81
2024/02/10 00:17:46;;;;;;;12.30;6.40;;;-10.20;91.30;;;;;;5069674;28;20025;-81
2024/02/10 00:20:15;;;;;;;9.43;5.30;;;-10.20;91.40;;;;;;5066958;28;20039;-82
2024/02/10 00:22:43;;;;;;;10.45;6.68;;;-10.20;91.40;;;;;;5066717;28;20081;-82
2024/02/10 00:25:09;;;;;;;11.70;6.22;;;-10.20;91.60;;;;;;5074139;28;20099;-81
2024/02/10 00:27:37;;;;;;;8.25;5.43;;;-10.20;91.80;;;;;;5063505;28;20382;-81
2024/02/10 00:30:05;;;;;;;11.93;6.10;;;-10.30;91.80;;;;;;5066159;28;20016;-81
2024/02/10 00:32:32;;;;;;;14.30;7.88;;;-10.30;91.90;;;;;;5090574;28;20017;-80
2024/02/10 00:34:58;;;;;;;;;;;-10.30;91.70;;;;;;5089137;28;20135;-81
2024/02/10 00:37:24;;;;;;;9.43;5.23;;;-10.30;91.70;;;;;;5075716;28;19917;-80
2024/02/10 00:39:50;;;;;;;11.52;6.25;;;-10.30;91.60;;;;;;5077200;28;20083;-81
2024/02/10 00:42:17;;;;;;;11.80;7.25;;;-10.30;91.60;;;;;;5080418;28;20043;-80
2024/02/10 00:44:49;;;;;;;11.88;6.60;;;-10.30;91.70;;;;;;5078294;28;20044;-80
2024/02/10 00:47:15;;;;;;;10.38;5.93;;;-10.30;91.70;;;;;;5068529;28;20027;-81
2024/02/10 00:49:42;;;;;;;15.25;7.65;;;-10.40;91.70;;;;;;5065300;28;20040;-80
2024/02/10 00:52:16;;;;;;;14.75;7.50;;;-10.40;91.70;;;;;;5069112;28;20123;-81
2024/02/10 00:54:45;;;;;;;26.20;8.45;;;-10.40;91.70;;;;;;5063820;28;20709;-82
2024/02/10 00:57:11;;;;;;;12.73;6.80;;;-10.30;91.90;;;;;;5074169;28;20031;-83
2024/02/10 00:59:41;;;;;;;8.60;4.30;;;-10.40;91.90;;;;;;5064677;28;20112;-82
2024/02/10 01:02:08;;;;;;;12.00;7.10;;;-10.40;91.90;;;;;;5066958;28;20029;-81
2024/02/10 01:04:35;;;;;;;13.82;6.85;;;-10.40;91.90;;;;;;5073421;28;20020;-81
2024/02/10 01:07:01;;;;;;;11.60;5.57;;;-10.40;91.90;;;;;;5073576;28;20033;-81
2024/02/10 01:09:30;;;;;;;10.90;5.32;;;-10.40;91.90;;;;;;5073560;28;20093;-82
2024/02/10 01:11:56;;;;;;;9.88;5.93;;;-10.40;92.00;;;;;;5065952;28;20052;-81
2024/02/10 01:14:24;;;;;;;11.37;6.27;;;-10.40;92.00;;;;;;5073365;28;20053;-82
2024/02/10 01:16:53;;;;;;;15.15;6.72;;;-10.40;92.10;;;;;;5073545;28;20025;-81
2024/02/10 01:19:20;;;;;;;14.27;6.05;;;-10.40;92.10;;;;;;5070953;28;20032;-79
2024/02/10 01:21:46;;;;;;;;;;;-10.40;92.10;;;;;;5067943;28;20033;-82
2024/02/10 01:24:12;;;;;;;10.30;4.38;;;-10.40;92.10;;;;;;5055681;28;19912;-83
2024/02/10 01:26:40;;;;;;;11.63;6.20;;;-10.40;92.10;;;;;;5069135;28;20116;-80
2024/02/10 01:29:08;;;;;;;16.08;6.72;;;-10.50;92.00;;;;;;5069559;28;20466;-81
2024/02/10 01:31:34;;;;;;;12.70;6.90;;;-10.50;92.00;;;;;;5073323;28;20020;-82
2024/02/10 01:34:01;;;;;;;10.90;6.75;;;-10.50;92.10;;;;;;5070322;28;20025;-81
2024/02/10 01:36:29;;;;;;;10.82;6.20;;;-10.50;92.10;;;;;;5072892;28;20027;-81
2024/02/10 01:38:55;;;;;;;18.25;6.82;;;-10.50;92.10;;;;;;5072671;28;20020;-81
2024/02/10 01:41:20;;;;;;;11.02;6.93;;;-10.50;92.10;;;;;;5072286;28;20040;-80
2024/02/10 01:43:48;;;;;;;16.13;9.00;;;-10.50;92.10;;;;;;5072594;28;20088;-81
2024/02/10 01:46:22;;;;;;;10.80;6.40;;;-10.50;92.10;;;;;;5071427;28;20480;-81
2024/02/10 01:48:50;;;;;;;12.65;6.60;;;-10.50;92.10;;;;;;5075538;28;20028;-80
2024/02/10 01:51:17;;;;;;;12.82;7.13;;;-10.50;92.10;;;;;;5074336;28;20474;-81
2024/02/10 01:53:48;;;;;;;14.95;7.05;;;-10.50;92.10;;;;;;5064799;28;20037;-80
2024/02/10 01:56:17;;;;;;;12.85;8.77;;;-10.50;92.00;;;;;;5071848;28;20021;-81
2024/02/10 01:58:47;;;;;;;15.32;7.85;;;-10.50;92.00;;;;;;5069327;28;20020;-81
2024/02/10 02:01:16;;;;;;;11.52;6.47;;;-10.50;92.00;;;;;;5073324;28;20115;-81
2024/02/10 02:03:43;;;;;;;13.77;7.35;;;-10.60;92.00;;;;;;5074025;28;20485;-81
2024/02/10 02:06:17;;;;;;;11.52;6.55;;;-10.60;92.00;;;;;;5072166;28;20449;-80
2024/02/10 02:08:51;;;;;;;9.73;6.07;;;-10.60;92.10;;;;;;5059230;28;20532;-81
2024/02/10 02:11:17;;;;;;;13.38;7.10;;;-10.60;92.20;;;;;;5061805;28;20088;-80
2024/02/10 02:13:43;;;;;;;8.35;5.18;;;-10.60;92.20;;;;;;5074444;28;20024;-81
2024/02/10 02:16:12;;;;;;;13.97;7.33;;;-10.60;92.20;;;;;;5076434;28;20082;-81
2024/02/10 02:18:39;;;;;;;14.25;8.32;;;-10.60;92.30;;;;;;5074197;28;20025;-80
2024/02/10 02:21:06;;;;;;;11.15;6.78;;;-10.60;92.30;;;;;;5074739;28;20051;-79
2024/02/10 02:23:34;;;;;;;12.90;7.00;;;-10.70;92.30;;;;;;5077140;28;20051;-80
2024/02/10 02:26:00;;;;;;;12.65;7.60;;;-10.70;92.30;;;;;;5077434;28;20029;-82
2024/02/10 02:28:26;;;;;;;12.02;6.25;;;-10.70;92.30;;;;;;5072993;28;20070;-81
2024/02/10 02:30:52;;;;;;;11.63;6.95;;;-10.70;92.20;;;;;;5072091;28;20020;-81
2024/02/10 02:33:18;;;;;;;13.05;7.18;;;-10.70;92.30;;;;;;5071949;28;20052;-80
2024/02/10 02:35:44;;;;;;;13.73;6.30;;;-10.80;92.20;;;;;;5071643;28;20032;-80
2024/02/10 02:38:13;;;;;;;7.37;5.23;;;-10.80;92.30;;;;;;5073601;28;20017;-81
2024/02/10 02:40:39;;;;;;;10.02;6.07;;;-10.80;92.40;;;;;;5071349;28;20301;-81
2024/02/10 02:43:08;;;;;;;16.42;7.63;;;-10.80;92.50;;;;;;5061005;28;20487;-82
2024/02/10 02:45:34;;;;;;;14.98;7.93;;;-10.80;92.50;;;;;;5070618;28;20079;-81
2024/02/10 02:48:04;;;;;;;14.57;8.77;;;-10.80;92.40;;;;;;5064963;28;20167;-79
2024/02/10 02:50:31;;;;;;;13.57;5.20;;;-10.90;92.40;;;;;;5072022;28;20119;-79
2024/02/10 02:53:02;;;;;;;10.93;6.43;;;-10.90;92.50;;;;;;5068959;28;20075;-81
2024/02/10 02:55:29;;;;;;;10.95;6.72;;;-10.90;92.50;;;;;;5070824;28;20033;-80
2024/02/10 02:57:55;;;;;;;13.82;7.32;;;-10.90;92.50;;;;;;5071965;28;20025;-80
2024/02/10 03:00:22;;;;;;;14.18;7.22;;;-10.90;92.50;;;;;;5066877;28;20088;-80
2024/02/10 03:02:48;;;;;;;19.67;7.90;;;-11.00;92.60;;;;;;5071619;28;20024;-81
2024/02/10 03:05:17;;;;;;;11.73;6.45;;;-11.00;92.60;;;;;;5071613;28;20031;-80
2024/02/10 03:07:45;;;;;;;15.93;9.40;;;-11.00;92.70;;;;;;5061971;28;20482;-81
2024/02/10 03:10:12;;;;;;;11.27;6.97;;;-11.00;92.70;;;;;;5063848;28;20052;-79
2024/02/10 03:12:38;;;;;;;;;;;-11.10;92.80;;;;;;5066622;28;20078;-81
2024/02/10 03:15:07;;;;;;;8.90;6.03;;;-11.00;92.80;;;;;;5070192;28;20316;-80
2024/02/10 03:17:33;;;;;;;13.02;6.85;;;-11.00;92.80;;;;;;5065460;28;20250;-79
2024/02/10 03:20:00;;;;;;;10.13;6.80;;;-11.00;92.80;;;;;;5070509;28;20031;-80
2024/02/10 03:22:27;;;;;;;12.23;6.13;;;-11.00;92.80;;;;;;5071690;28;20016;-80
2024/02/10 03:24:54;;;;;;;14.07;7.80;;;-11.00;92.80;;;;;;5072062;28;20104;-81
2024/02/10 03:27:21;;;;;;;10.38;7.45;;;-11.00;93.10;;;;;;5070371;28;20406;-80
2024/02/10 03:29:47;;;;;;;12.85;6.88;;;-11.00;92.90;;;;;;5069648;28;20021;-80
2024/02/10 03:32:14;;;;;;;13.60;8.35;;;-11.00;92.90;;;;;;5070721;28;20106;-79
2024/02/10 03:34:40;;;;;;;14.53;8.00;;;-11.00;92.90;;;;;;5063968;28;20127;-82
2024/02/10 03:37:06;;;;;;;14.50;7.47;;;-11.00;92.90;;;;;;5073654;28;20028;-80
2024/02/10 03:39:32;;;;;;;11.40;7.68;;;-11.00;92.80;;;;;;5072056;28;20044;-80
2024/02/10 03:41:58;;;;;;;12.75;7.10;;;-11.00;92.80;;;;;;5075178;28;20032;-79
2024/02/10 03:44:24;;;;;;;14.65;7.47;;;-11.00;92.80;;;;;;5082132;28;20481;-80
2024/02/10 03:46:54;;;;;;;17.20;8.65;;;-11.00;92.90;;;;;;5079328;28;20025;-81
2024/02/10 03:49:20;;;;;;;15.25;8.75;;;-11.00;92.90;;;;;;5081748;28;20067;-80
2024/02/10 03:51:46;;;;;;;15.70;9.05;;;-11.00;92.90;;;;;;5072232;28;20017;-80
2024/02/10 03:54:12;;;;;;;18.75;8.98;;;-11.00;92.80;;;;;;5080362;28;20028;-81
2024/02/10 03:56:46;;;;;;;16.85;7.38;;;-11.00;92.80;;;;;;5080385;28;20029;-80
2024/02/10 03:59:13;;;;;;;17.70;6.95;;;-11.10;92.80;;;;;;5078677;28;20420;-80
2024/02/10 04:01:42;;;;;;;;;;;-11.00;92.90;;;;;;5076303;28;20053;-78
2024/02/10 04:04:08;;;;;;;14.20;6.88;;;-11.00;92.90;;;;;;5073708;28;19908;-79
2024/02/10 04:06:33;;;;;;;18.35;8.57;;;-11.10;92.90;;;;;;5068576;28;20070;-80
2024/02/10 04:09:06;;;;;;;18.20;8.70;;;-11.00;93.00;;;;;;5073000;28;20049;-80
2024/02/10 04:11:32;;;;;;;21.05;8.60;;;-11.00;93.00;;;;;;5067629;28;20021;-80
2024/02/10 04:14:01;;;;;;;14.43;7.35;;;-11.00;93.00;;;;;;5074464;28;20021;-80
2024/02/10 04:16:27;;;;;;;16.75;8.85;;;-11.00;93.00;;;;;;5072064;28;20527;-80
2024/02/10 04:18:59;;;;;;;13.47;8.30;;;-11.00;93.00;;;;;;5074074;28;20028;-80
2024/02/10 04:21:26;;;;;;;14.75;8.23;;;-11.00;93.00;;;;;;5063844;28;20301;-81
2024/02/10 04:23:51;;;;;;;;;;;-11.00;93.00;;;;;;5074377;28;20036;-79
2024/02/10 04:26:18;;;;;;;15.20;7.80;;;-11.00;93.00;;;;;;5074143;28;19950;-80
2024/02/10 04:28:44;;;;;;;14.35;9.10;;;-11.00;93.00;;;;;;5069690;28;20056;-81
2024/02/10 04:31:13;;;;;;;16.57;8.30;;;-11.00;93.00;;;;;;5075522;28;20111;-80
2024/02/10 04:33:42;;;;;;;14.02;7.38;;;-10.90;93.00;;;;;;5079066;28;20021;-80
2024/02/10 04:36:08;;;;;;;18.48;8.30;;;-10.90;93.00;;;;;;5072492;28;20090;-81
2024/02/10 04:38:36;;;;;;;13.77;7.60;;;-10.90;93.00;;;;;;5067041;28;20150;-80
2024/02/10 04:41:04;;;;;;;15.63;7.55;;;-10.90;92.90;;;;;;5067336;28;20061;-80
2024/02/10 04:43:29;;;;;;;16.60;8.20;;;-10.90;92.80;;;;;;5073661;28;20054;-82
2024/02/10 04:45:55;;;;;;;12.10;8.32;;;-10.90;92.80;;;;;;5074162;28;20100;-82
2024/02/10 04:48:21;;;;;;;19.50;8.07;;;-10.90;92.90;;;;;;5073172;28;20028;-81
2024/02/10 04:50:47;;;;;;;13.30;8.10;;;-10.80;93.00;;;;;;5074756;28;20020;-81
2024/02/10 04:53:15;;;;;;;15.82;8.30;;;-10.80;93.00;;;;;;5079366;28;20093;-81
2024/02/10 04:55:41;;;;;;;14.88;7.82;;;-10.80;93.00;;;;;;5054656;28;20050;-81
2024/02/10 04:58:07;;;;;;;17.25;9.25;;;-10.80;92.90;;;;;;5076465;28;20017;-82
2024/02/10 05:00:33;;;;;;;14.07;8.75;;;-10.80;92.90;;;;;;5073444;28;20045;-81
2024/02/10 05:03:02;;;;;;;16.02;7.68;;;-10.80;93.00;;;;;;5073179;28;20029;-82
2024/02/10 05:05:29;;;;;;;13.85;8.52;;;-10.70;93.00;;;;;;5062970;28;20460;-82
2024/02/10 05:07:58;;;;;;;12.85;8.20;;;-10.80;93.00;;;;;;5066717;28;20075;-82
2024/02/10 05:10:24;;;;;;;17.35;8.43;;;-10.80;92.90;;;;;;5073652;28;20028;-79
2024/02/10 05:12:51;;;;;;;15.82;7.03;;;-10.70;92.90;;;;;;5080813;28;20035;-80
2024/02/10 05:15:20;;;;;;;14.20;8.00;;;-10.80;92.80;;;;;;5073766;28;20024;-79
2024/02/10 05:17:50;;;;;;;17.15;7.82;;;-10.80;92.80;;;;;;5071674;28;20021;-80
2024/02/10 05:20:22;;;;;;;17.92;9.13;;;-10.80;92.80;;;;;;5072949;28;20111;-81
2024/02/10 05:22:49;;;;;;;17.58;9.05;;;-10.70;92.90;;;;;;5075487;28;20047;-80
2024/02/10 05:25:18;;;;;;;19.27;8.27;;;-10.70;92.90;;;;;;5070076;28;20025;-79
2024/02/10 05:27:45;;;;;;;15.30;7.78;;;-10.70;93.20;;;;;;5074132;28;20381;-82
2024/02/10 05:30:21;;;;;;;13.70;8.80;;;-10.70;93.00;;;;;;5073028;28;20012;-82
2024/02/10 05:32:49;;;;;;;15.60;8.70;;;-10.70;93.00;;;;;;5073432;28;20653;-79
2024/02/10 05:35:18;;;;;;;15.30;9.07;;;-10.70;93.00;;;;;;5073552;28;20153;-81
2024/02/10 05:37:54;;;;;;;17.83;10.50;;;-10.70;93.10;;;;;;5053868;28;20021;-80
2024/02/10 05:40:21;;;;;;;15.27;7.85;;;-10.70;93.10;;;;;;5070813;28;20111;-79
2024/02/10 05:42:50;;;;;;;17.90;8.80;;;-10.70;93.10;;;;;;5066222;28;20055;-80
2024/02/10 05:45:18;;;;;;;13.45;8.10;;;-10.60;93.30;;;;;;5070419;28;20024;-80
2024/02/10 05:47:50;;;;;;;16.08;9.20;;;-10.60;93.50;;;;;;5072125;28;20024;-80
2024/02/10 05:50:19;;;;;;;15.43;8.57;;;-10.60;93.40;;;;;;5074763;28;20040;-81
2024/02/10 05:52:45;;;;;;;19.95;9.50;;;-10.50;93.40;;;;;;5074462;28;20040;-81
2024/02/10 05:55:13;;;;;;;15.05;6.90;;;-10.50;93.40;;;;;;5073865;28;20035;-81
2024/02/10 05:57:40;;;;;;;17.05;7.90;;;-10.50;93.50;;;;;;5075662;28;20056;-80
2024/02/10 06:00:09;;;;;;;12.88;6.97;;;-10.40;93.60;;;;;;5067492;28;20017;-82
2024/02/10 06:02:39;;;;;;;14.30;9.50;;;-10.40;93.60;;;;;;5071105;28;20062;-82
2024/02/10 06:05:09;;;;;;;17.65;10.63;;;-10.30;93.60;;;;;;5059959;28;20028;-81
2024/02/10 06:07:39;;;;;;;19.25;9.70;;;-10.30;93.50;;;;;;5071094;28;20532;-79
2024/02/10 06:10:15;;;;;;;26.55;10.45;;;-10.30;93.40;;;;;;5072522;28;20079;-81
2024/02/10 06:12:51;;;;;;;16.48;8.05;;;-10.20;93.30;;;;;;5071940;28;20103;-80
2024/02/10 06:15:19;;;;;;;22.55;10.43;;;-10.20;93.40;;;;;;5063984;28;20396;-81
2024/02/10 06:17:54;;;;;;;24.33;9.63;;;-10.10;93.30;;;;;;5071878;28;20032;-79
2024/02/10 06:20:23;;;;;;;18.17;8.43;;;-10.00;93.30;;;;;;5058974;28;20094;-81
2024/02/10 06:22:52;;;;;;;17.15;8.60;;;-10.00;93.30;;;;;;5075604;28;20382;-81
2024/02/10 06:25:27;;;;;;;16.48;10.20;;;-10.00;93.30;;;;;;5072021;28;20548;-80
2024/02/10 06:27:58;;;;;;;17.40;8.70;;;-9.90;93.30;;;;;;5072096;28;20029;-79
2024/02/10 06:30:36;;;;;;;16.20;8.75;;;-9.80;93.30;;;;;;5071722;28;20547;-82
2024/02/10 06:33:04;;;;;;;20.95;10.27;;;-9.70;93.30;;;;;;5070511;28;20033;-80
2024/02/10 06:35:30;;;;;;;18.42;10.27;;;-9.70;93.20;;;;;;5069865;28;20035;-81
2024/02/10 06:37:56;;;;;;;19.95;10.00;;;-9.70;93.10;;;;;;5073702;28;20020;-80
2024/02/10 06:40:22;;;;;;;15.25;8.50;;;-9.60;93.10;;;;;;5071525;28;20434;-80
2024/02/10 06:42:52;;;;;;;20.25;9.68;;;-9.60;93.20;;;;;;5071966;28;20107;-80
2024/02/10 06:45:21;;;;;;;19.08;11.63;;;-9.60;93.10;;;;;;5068209;28;20013;-79
2024/02/10 06:47:49;;;;;;;17.08;10.48;;;-9.50;93.00;;;;;;5074363;28;20017;-79
2024/02/10 06:50:23;;;;;;;17.67;11.18;;;-9.60;92.90;;;;;;5064670;28;20059;-81
2024/02/10 06:52:50;;;;;;;20.88;9.73;;;-9.50;92.70;;;;;;5071484;28;20101;-80
2024/02/10 06:55:19;;;;;;;21.13;11.10;;;-9.60;92.50;;;;;;5069452;28;20044;-80
2024/02/10 06:57:48;;;;;;;18.10;11.82;;;-9.60;92.20;;;;;;5058338;28;20059;-81
2024/02/10 07:00:15;;;;;;;21.00;11.63;;;-9.70;92.10;;;;;;5072097;28;20036;-81
2024/02/10 07:02:56;;;;;;;23.10;14.38;;;-9.70;92.20;;;;;;5064668;28;20053;-80
2024/02/10 07:05:25;;;;;;;20.08;12.05;;;-9.70;92.80;;;;;;5063209;28;20032;-80
2024/02/10 07:07:52;;;;;;;25.08;11.43;;;-9.60;93.30;;;;;;5063655;28;20020;-81
2024/02/10 07:10:19;;;;;;;21.95;12.48;;;-9.60;93.80;;;;;;5075847;28;20031;-79
2024/02/10 07:12:47;;;;;;;23.17;12.63;;;-9.70;94.00;;;;;;5068150;28;20056;-79
2024/02/10 07:15:14;;;;;;;;;;;-9.70;94.10;;;;;;5071548;28;20065;-81
2024/02/10 07:17:43;;;;;;;28.70;12.63;;;-9.70;94.10;;;;;;5067158;28;19908;-81
2024/02/10 07:20:18;;;;;;;24.23;14.40;;;-9.70;94.20;;;;;;5074942;28;20492;-81
2024/02/10 07:22:56;;;;;;;26.10;15.43;;;-9.70;94.10;;;;;;5071769;28;20029;-81
2024/02/10 07:25:27;;;;;;;18.60;11.88;;;-9.70;94.20;;;;;;5076547;28;20021;-81
2024/02/10 07:27:53;;;;;;;23.13;12.73;;;-9.60;94.60;;;;;;5072693;28;20021;-81
2024/02/10 07:30:20;;;;;;;23.73;13.23;;;-9.70;94.80;;;;;;5064134;28;20398;-83
2024/02/10 07:32:50;;;;;;;28.45;14.07;;;-9.70;94.90;;;;;;5075339;28;20272;-80
2024/02/10 07:35:16;;;;;;;18.30;11.93;;;-9.60;95.00;;;;;;5077858;28;20031;-80
2024/02/10 07:37:44;;;;;;;21.10;10.95;;;-9.50;94.90;;;;;;5075068;28;20103;-81
2024/02/10 07:40:11;;;;;;;21.17;13.25;;;-9.40;94.80;;;;;;5080092;28;20036;-81
2024/02/10 07:42:40;;;;;;;21.25;12.95;;;-9.30;94.20;;;;;;5071688;28;20078;-81
2024/02/10 07:45:07;;;;;;;20.67;11.60;;;-9.20;93.50;;;;;;5068966;28;20032;-81
2024/02/10 07:47:33;;;;;;;22.17;12.98;;;-9.20;93.20;;;;;;5067223;28;20078;-81
2024/02/10 07:49:59;;;;;;;16.83;11.13;;;-9.10;93.50;;;;;;5075198;28;20028;-81
2024/02/10 07:52:30;;;;;;;22.27;12.23;;;-9.10;92.60;;;;;;5077599;28;20020;-80
2024/02/10 07:54:59;;;;;;;20.50;11.75;;;-9.20;92.30;;;;;;5083671;28;20344;-80
2024/02/10 07:57:26;;;;;;;24.42;14.13;;;-9.20;92.50;;;;;;5076473;28;20021;-79
2024/02/10 07:59:52;;;;;;;20.23;12.48;;;-9.10;92.70;;;;;;5074097;28;20027;-80
2024/02/10 08:02:23;;;;;;;24.77;11.15;;;-9.00;93.00;;;;;;5075671;28;20078;-80
2024/02/10 08:04:51;;;;;;;23.35;14.88;;;-9.00;92.60;;;;;;5076809;28;20094;-80
2024/02/10 08:07:18;;;;;;;29.48;17.63;;;-9.00;92.40;;;;;;5076040;28;20048;-81
2024/02/10 08:09:44;;;;;;;;;;;-8.90;92.70;;;;;;5071405;28;20625;-81
2024/02/10 08:12:12;;;;;;;26.37;11.97;;;-8.80;92.90;;;;;;5067460;28;19947;-81
2024/02/10 08:14:39;;;;;;;36.70;15.52;;;-8.70;92.60;;;;;;5068345;28;20667;-82
2024/02/10 08:17:08;;;;;;;25.67;15.18;;;-8.60;92.00;;;;;;5074532;28;20115;-79
2024/02/10 08:19:37;;;;;;;24.67;13.73;;;-8.50;92.00;;;;;;5075367;28;20554;-81
2024/02/10 08:22:07;;;;;;;23.90;14.57;;;-8.50;92.10;;;;;;5060508;28;20029;-82
2024/02/10 08:24:34;;;;;;;24.52;14.18;;;-8.40;92.40;;;;;;5075305;28;20024;-81
2024/02/10 08:27:01;;;;;;;23.00;13.32;;;-8.20;92.90;;;;;;5069658;28;20093;-81
2024/02/10 08:29:33;;;;;;;21.92;12.63;;;-8.10;92.90;;;;;;5071167;28;20068;-81
2024/02/10 08:32:03;;;;;;;21.73;13.60;;;-7.90;92.40;;;;;;5072893;28;20028;-81
2024/02/10 08:34:38;;;;;;;32.65;14.30;;;-7.70;92.60;;;;;;5072296;28;20027;-80
2024/02/10 08:37:04;;;;;;;20.83;13.40;;;-7.50;91.70;;;;;;5075189;28;20050;-82
2024/02/10 08:39:30;;;;;;;22.30;13.30;;;-7.20;92.60;;;;;;5079113;28;20016;-82
2024/02/10 08:41:58;;;;;;;24.23;12.88;;;-6.90;92.30;;;;;;5078048;28;20127;-81
2024/02/10 08:44:24;;;;;;;23.20;11.30;;;-6.50;92.30;;;;;;5074055;28;20028;-82
2024/02/10 08:46:52;;;;;;;25.75;12.40;;;-6.20;92.20;;;;;;5074135;28;20024;-82
2024/02/10 08:49:18;;;;;;;17.77;11.20;;;-5.90;92.00;;;;;;5072213;28;20028;-82
2024/02/10 08:51:49;;;;;;;21.88;11.85;;;-5.60;92.20;;;;;;5072294;28;20548;-83
2024/02/10 08:54:16;;;;;;;23.63;12.45;;;-5.30;91.60;;;;;;5074109;28;20024;-81
2024/02/10 08:56:43;;;;;;;24.15;12.52;;;-5.00;90.50;;;;;;5074527;28;20038;-82
2024/02/10 08:59:12;;;;;;;25.63;13.00;;;-4.90;89.30;;;;;;5074506;28;20026;-82
2024/02/10 09:01:42;;;;;;;23.73;15.38;;;-4.70;88.70;;;;;;5075239;28;20023;-82
2024/02/10 09:04:11;;;;;;;30.38;17.83;;;-4.50;89.30;;;;;;5076181;28;20143;-82
2024/02/10 09:06:37;;;;;;;31.38;17.25;;;-4.30;86.20;;;;;;5078669;28;20048;-81
2024/02/10 09:09:04;;;;;;;28.73;16.77;;;-4.10;83.20;;;;;;5074063;28;20041;-83
2024/02/10 09:11:37;;;;;;;24.63;16.60;;;-4.10;82.80;;;;;;5077273;28;20032;-81
2024/02/10 09:14:03;;;;;;;28.27;16.55;;;-3.80;84.00;;;;;;5074238;28;20055;-80
2024/02/10 09:16:30;;;;;;;27.23;16.20;;;-3.30;86.10;;;;;;5078222;28;20123;-81
2024/02/10 09:18:57;;;;;;;32.33;18.63;;;-2.60;85.50;;;;;;5076686;28;20469;-82
2024/02/10 09:21:23;;;;;;;26.80;16.67;;;-1.90;83.70;;;;;;5076048;28;20032;-81
2024/02/10 09:23:49;;;;;;;29.27;16.20;;;;;;;;;;5082812;28;20186;-84
2024/02/10 09:26:17;;;;;;;28.75;17.80;;;;;;;;;;5075269;28;20032;-83
2024/02/10 09:28:43;;;;;;;25.48;17.70;;;;;;;;;;5074640;28;20066;-83
2024/02/10 09:31:13;;;;;;;26.65;19.05;;;;;;;;;;5073293;28;20016;-82
2024/02/10 09:33:39;;;;;;;30.40;17.05;;;;;;;;;;5083317;28;20050;-84
2024/02/10 09:36:11;;;;;;;21.85;16.55;;;;;;;;;;5075428;28;20094;-85
2024/02/10 09:38:39;;;;;;;24.70;17.92;;;;;;;;;;5074604;28;20017;-83
2024/02/10 09:41:07;;;;;;;24.83;16.05;;;;;;;;;;5068652;28;20033;-82
2024/02/10 09:43:36;;;;;;;25.70;15.95;;;;;;;;;;5073098;28;20020;-83
2024/02/10 09:46:10;;;;;;;24.80;16.05;;;;;;;;;;5062146;28;20024;-82
2024/02/10 09:48:44;;;;;;;25.52;15.23;;;;;;;;;;5059728;28;20078;-84
2024/02/10 09:51:11;;;;;;;23.65;15.20;;;;;;;;;;5057919;28;20021;-82
2024/02/10 09:53:40;;;;;;;33.63;16.00;;;;;;;;;;5055067;28;20021;-83
2024/02/10 09:56:13;;;;;;;21.75;15.77;;;;;;;;;;5066701;28;20073;-84
2024/02/10 09:58:46;;;;;;;28.75;18.70;;;;;;;;;;5072870;28;20086;-82
2024/02/10 10:01:16;;;;;;;28.70;18.65;;;;;;;;;;5065882;28;20036;-83
2024/02/10 10:03:42;;;;;;;30.40;18.45;;;;;;;;;;5066584;28;20103;-82
2024/02/10 10:06:12;;;;;;;26.92;17.00;;;;;;;;;;5071321;28;20588;-83
2024/02/10 10:08:39;;;;;;;19.63;11.88;;;;;;;;;;5075925;28;20059;-83
2024/02/10 10:11:08;;;;;;;24.77;15.05;;;;;;;;;;5071736;28;20028;-84
2024/02/10 10:13:40;;;;;;;27.42;18.15;;;;;;;;;;5060718;28;20116;-82
2024/02/10 10:16:10;;;;;;;20.65;14.98;;;;;;;;;;5071618;28;20025;-82
2024/02/10 10:18:37;;;;;;;19.38;13.70;;;;;;;;;;5069668;28;20031;-82
2024/02/10 10:21:15;;;;;;;24.83;16.42;;;;;;;;;;5068277;28;20124;-81
2024/02/10 10:23:44;;;;;;;24.83;14.52;;;-1.40;81.00;;;;;;5070627;28;20505;-83
2024/02/10 10:26:12;;;;;;;25.40;16.73;;;1.30;66.30;;;;;;5069902;28;20109;-81
2024/02/10 10:28:41;;;;;;;25.40;15.95;;;1.50;65.90;;;;;;5070479;28;20031;-84
2024/02/10 10:31:07;;;;;;;23.55;16.58;;;1.50;61.00;;;;;;5071063;28;20036;-82
2024/02/10 10:33:34;;;;;;;23.25;16.05;;;1.50;57.00;;;;;;5072501;28;20028;-81
2024/02/10 10:36:04;;;;;;;22.67;15.57;;;1.50;58.30;;;;;;5068591;28;20037;-83
2024/02/10 10:38:30;;;;;;;25.75;15.00;;;1.50;61.60;;;;;;5072493;28;20040;-85
2024/02/10 10:40:57;;;;;;;23.15;16.02;;;1.30;59.20;;;;;;5071276;28;20704;-84
2024/02/10 10:43:27;;;;;;;24.90;14.48;;;1.00;57.70;;;;;;5073651;28;20044;-84
2024/02/10 10:45:55;;;;;;;22.75;14.98;;;0.70;61.50;;;;;;5072080;28;20449;-85
2024/02/10 10:48:21;;;;;;;21.13;15.13;;;0.50;59.30;;;;;;5069007;28;20029;-85
2024/02/10 10:50:55;;;;;;;26.85;15.85;;;0.30;63.90;;;;;;5070516;28;20111;-87
2024/02/10 10:53:24;;;;;;;26.77;15.27;;;0.10;62.00;;;;;;5072232;28;20012;-87
2024/02/10 10:55:58;;;;;;;25.95;16.98;;;-0.30;60.20;;;;;;5069005;28;20117;-87
2024/02/10 10:58:38;;;;;;;26.65;16.13;;;-0.50;60.90;;;;;;5077847;28;20036;-83
2024/02/10 11:01:05;;;;;;;27.70;17.13;;;-0.80;61.10;;;;;;5070512;28;20033;-86
2024/02/10 11:03:32;;;;;;;27.08;16.63;;;;;;;;;;5074769;28;20113;-82
2024/02/10 11:05:58;;;;;;;27.93;16.47;;;;;;;;;;5070728;28;20489;-82
2024/02/10 11:08:26;;;;;;;26.73;18.05;;;;;;;;;;5071837;28;20045;-82
2024/02/10 11:10:52;;;;;;;;;;;;;;;;;;5065043;28;20049;-82
2024/02/10 11:13:22;;;;;;;26.85;15.05;;;;;;;;;;5074242;28;19993;-84
2024/02/10 11:16:12;;;;;;;28.05;15.23;;;;;;;;;;5069221;28;20021;-84
2024/02/10 11:18:45;;;;;;;25.30;14.98;;;;;;;;;;5075383;28;20470;-82
2024/02/10 11:21:19;;;;;;;29.75;16.58;;;;;;;;;;5070986;28;20036;-84
2024/02/10 11:24:05;;;;;;;26.60;18.00;;;;;;;;;;5074883;28;20190;-82
2024/02/10 11:26:33;;;;;;;26.63;16.00;;;;;;;;;;5074716;28;20016;-84
2024/02/10 11:28:59;;;;;;;32.33;15.68;;;;;;;;;;5075931;28;20043;-81
2024/02/10 11:31:25;;;;;;;28.35;16.65;;;;;;;;;;5072699;28;20444;-85
2024/02/10 11:33:51;;;;;;;31.42;16.40;;;;;;;;;;5077772;28;20055;-85
2024/02/10 11:36:19;;;;;;;27.30;16.88;;;;;;;;;;5076851;28;20019;-84
2024/02/10 11:38:46;;;;;;;30.40;17.83;;;;;;;;;;5074973;28;20111;-83
2024/02/10 11:41:13;;;;;;;24.27;13.90;;;;;;;;;;5075701;28;20028;-86
2024/02/10 11:43:39;;;;;;;37.85;17.80;;;;;;;;;;5075605;28;20036;-84
2024/02/10 11:46:08;;;;;;;31.02;17.08;;;;;;;;;;5074755;28;20402;-83
2024/02/10 11:48:34;;;;;;;32.53;16.17;;;;;;;;;;5072675;28;20085;-82
2024/02/10 11:51:02;;;;;;;25.60;17.60;;;;;;;;;;5071459;28;20111;-84
2024/02/10 11:53:27;;;;;;;;;;;-0.90;63.10;;;;;;5058294;28;20083;-84
2024/02/10 11:55:54;;;;;;;24.75;15.25;;;-5.60;77.20;;;;;;5066559;28;20283;-85
2024/02/10 11:58:23;;;;;;;32.15;17.08;;;-5.80;76.80;;;;;;5067658;28;20024;-84
2024/02/10 12:00:49;;;;;;;27.05;16.90;;;-6.00;76.60;;;;;;5077364;28;20040;-85
2024/02/10 12:03:30;;;;;;;;;;;;;;;;;;;;;
2024/02/10 12:05:59;;;;;;;29.58;14.98;;;-6.10;77.90;;;;;;5078546;28;20116;-86
2024/02/10 12:08:25;;;;;;;27.85;15.98;;;-6.20;78.10;;;;;;5072880;28;20036;-83
2024/02/10 12:10:51;;;;;;;31.17;16.80;;;-6.20;79.30;;;;;;5075440;28;20025;-83
2024/02/10 12:13:22;;;;;;;27.83;17.92;;;-6.30;78.70;;;;;;5074579;28;20087;-84
2024/02/10 12:15:50;;;;;;;24.98;16.05;;;-6.30;78.50;;;;;;5071412;28;20110;-83
2024/02/10 12:18:17;;;;;;;32.25;15.63;;;-6.40;78.70;;;;;;5065629;28;20013;-83
2024/02/10 12:20:45;;;;;;;26.10;16.95;;;-6.40;79.80;;;;;;5067550;28;20424;-84
2024/02/10 12:23:14;;;;;;;28.70;16.35;;;-6.50;79.40;;;;;;5075972;28;20511;-82
2024/02/10 12:25:39;;;;;;;28.20;17.95;;;-6.50;79.60;;;;;;5077295;28;20509;-82
2024/02/10 12:28:05;;;;;;;29.83;16.30;;;-6.50;79.90;;;;;;5072901;28;20028;-80
2024/02/10 12:30:31;;;;;;;29.25;16.00;;;-6.50;80.50;;;;;;5078888;28;20017;-79
2024/02/10 12:32:58;;;;;;;26.98;13.63;;;-6.50;80.10;;;;;;5077044;28;20081;-81
2024/02/10 12:35:24;;;;;;;23.92;14.40;;;-6.50;81.20;;;;;;5079563;28;20054;-80
2024/02/10 12:37:50;;;;;;;22.98;15.35;;;-6.50;81.20;;;;;;5080483;28;20061;-80
2024/02/10 12:40:21;;;;;;;22.45;13.63;;;-6.60;81.00;;;;;;5063643;28;20083;-78
2024/02/10 12:42:47;;;;;;;26.75;15.13;;;-6.60;82.00;;;;;;5062924;28;20021;-79
2024/02/10 12:45:14;;;;;;;23.27;15.02;;;-6.70;82.40;;;;;;5069964;28;20389;-80
2024/02/10 12:47:45;;;;;;;28.73;15.57;;;-6.70;82.40;;;;;;5074084;28;20032;-80
2024/02/10 12:50:11;;;;;;;25.35;14.70;;;-6.70;82.40;;;;;;5078298;28;20020;-80